createdAt,value
2022-11-17T00:00:42.679Z,1.50
2022-11-17T00:03:15.083Z,1.50
2022-11-17T00:05:42.151Z,1.50
2022-11-17T00:08:09.446Z,1.50
2022-11-17T00:10:36.386Z,1.40
2022-11-17T00:13:22.023Z,1.30
2022-11-17T00:15:48.799Z,1.30
2022-11-17T00:18:34.109Z,1.40
2022-11-17T00:21:19.217Z,1.30
2022-11-17T00:23:50.096Z,1.30
2022-11-17T00:26:22.457Z,1.40
2022-11-17T00:28:57.488Z,1.40
2022-11-17T00:31:43.746Z,1.30
2022-11-17T00:34:22.987Z,1.30
2022-11-17T00:36:51.883Z,1.30
2022-11-17T00:39:22.271Z,1.20
2022-11-17T00:41:49.312Z,1.20
2022-11-17T00:44:16.194Z,1.30
2022-11-17T00:46:43.295Z,1.30
2022-11-17T00:49:11.334Z,1.20
2022-11-17T00:51:38.630Z,1.20
2022-11-17T00:54:06.728Z,1.20
2022-11-17T00:56:34.084Z,1.20
2022-11-17T00:59:00.972Z,1.30
2022-11-17T01:01:27.954Z,1.40
2022-11-17T01:04:03.123Z,1.30
2022-11-17T01:06:41.718Z,1.20
2022-11-17T01:09:16.319Z,1.20
2022-11-17T01:11:43.860Z,1.20
2022-11-17T01:14:14.469Z,1.10
2022-11-17T01:16:41.541Z,1.00
2022-11-17T01:19:08.827Z,1.10
2022-11-17T01:21:35.603Z,1.10
2022-11-17T01:24:02.572Z,1.20
2022-11-17T01:26:35.696Z,1.10
2022-11-17T01:29:03.833Z,1.10
2022-11-17T01:31:32.951Z,1.10
2022-11-17T01:34:00.068Z,1.10
2022-11-17T01:36:51.517Z,1.10
2022-11-17T01:39:18.603Z,1.00
2022-11-17T01:41:45.389Z,1.00
2022-11-17T01:44:48.304Z,1.00
2022-11-17T01:47:20.035Z,1.00
2022-11-17T01:49:48.848Z,0.90
2022-11-17T01:52:16.241Z,1.00
2022-11-17T01:54:46.975Z,0.90
2022-11-17T01:57:20.253Z,1.00
2022-11-17T01:59:53.088Z,0.90
2022-11-17T02:02:20.829Z,1.00
2022-11-17T02:05:15.815Z,1.00
2022-11-17T02:07:44.930Z,1.10
2022-11-17T02:10:11.971Z,1.00
2022-11-17T02:12:38.873Z,1.00
2022-11-17T02:15:06.163Z,0.90
2022-11-17T02:17:37.581Z,0.90
2022-11-17T02:20:07.459Z,0.90
2022-11-17T02:22:48.952Z,0.90
2022-11-17T02:25:40.072Z,0.90
2022-11-17T02:28:18.882Z,0.80
2022-11-17T02:31:17.786Z,0.80
2022-11-17T02:34:02.617Z,0.60
2022-11-17T02:36:29.350Z,0.60
2022-11-17T02:39:20.113Z,0.60
2022-11-17T02:41:58.696Z,0.70
2022-11-17T02:44:48.095Z,0.80
2022-11-17T02:47:23.825Z,0.80
2022-11-17T02:50:10.672Z,0.80
2022-11-17T02:52:37.707Z,0.80
2022-11-17T02:55:07.850Z,0.70
2022-11-17T02:57:39.542Z,0.80
2022-11-17T03:00:15.128Z,0.70
2022-11-17T03:03:06.148Z,0.70
2022-11-17T03:05:47.959Z,0.70
2022-11-17T03:08:50.026Z,0.70
2022-11-17T03:11:19.161Z,0.60
2022-11-17T03:13:51.820Z,0.60
2022-11-17T03:16:34.794Z,0.70
2022-11-17T03:19:10.580Z,0.60
2022-11-17T03:21:37.293Z,0.60
2022-11-17T03:24:16.968Z,0.50
2022-11-17T03:26:50.093Z,0.50
2022-11-17T03:29:20.479Z,0.60
2022-11-17T03:31:49.087Z,0.50
2022-11-17T03:34:20.581Z,0.50
2022-11-17T03:36:51.972Z,0.50
2022-11-17T03:39:47.834Z,0.50
2022-11-17T03:42:22.893Z,0.40
2022-11-17T03:45:02.435Z,0.50
2022-11-17T03:47:33.457Z,0.40
2022-11-17T03:50:13.562Z,0.50
2022-11-17T03:52:41.601Z,0.50
2022-11-17T03:55:09.551Z,0.50
2022-11-17T03:58:01.192Z,0.40
2022-11-17T04:00:28.232Z,0.40
2022-11-17T04:02:58.716Z,0.40
2022-11-17T04:05:26.136Z,0.40
2022-11-17T04:07:53.150Z,0.40
2022-11-17T04:10:25.834Z,0.30
2022-11-17T04:13:12.848Z,0.40
2022-11-17T04:15:59.085Z,0.30
2022-11-17T04:18:26.735Z,0.30
2022-11-17T04:20:55.930Z,0.40
2022-11-17T04:23:24.034Z,0.40
2022-11-17T04:26:12.371Z,0.30
2022-11-17T04:28:48.458Z,0.30
2022-11-17T04:31:20.971Z,0.30
2022-11-17T04:33:50.291Z,0.20
2022-11-17T04:36:24.469Z,0.30
2022-11-17T04:38:54.791Z,0.30
2022-11-17T04:41:42.255Z,0.20
2022-11-17T04:44:11.176Z,0.20
2022-11-17T04:46:39.284Z,0.20
2022-11-17T04:49:07.077Z,0.20
2022-11-17T04:51:35.137Z,0.20
2022-11-17T04:54:02.435Z,0.20
2022-11-17T04:56:29.580Z,0.10
2022-11-17T04:58:56.710Z,0.10
2022-11-17T05:01:25.083Z,0.10
2022-11-17T05:03:52.938Z,0.10
2022-11-17T05:06:25.354Z,0.10
2022-11-17T05:08:56.640Z,0.10
2022-11-17T05:11:46.992Z,0.30
2022-11-17T05:14:15.908Z,0.30
2022-11-17T05:17:08.403Z,0.20
2022-11-17T05:19:36.046Z,0.20
2022-11-17T05:22:03.227Z,0.10
2022-11-17T05:24:29.972Z,0.10
2022-11-17T05:26:56.831Z,0.10
2022-11-17T05:29:24.020Z,0.00
2022-11-17T05:31:51.093Z,0.10
2022-11-17T05:34:18.593Z,0.00
2022-11-17T05:36:46.060Z,0.10
2022-11-17T05:39:14.062Z,0.20
2022-11-17T05:41:40.936Z,0.20
2022-11-17T05:44:07.721Z,0.20
2022-11-17T05:46:34.456Z,0.10
2022-11-17T05:49:01.429Z,0.10
2022-11-17T05:51:28.279Z,0.10
2022-11-17T05:53:55.104Z,0.00
2022-11-17T05:56:46.672Z,0.10
2022-11-17T05:59:24.796Z,0.00
2022-11-17T06:02:00.641Z,0.00
2022-11-17T06:04:28.563Z,0.00
2022-11-17T06:06:59.477Z,-0.10
2022-11-17T06:09:29.912Z,0.00
2022-11-17T06:12:00.966Z,0.00
2022-11-17T06:14:31.034Z,0.00
2022-11-17T06:17:03.767Z,-0.10
2022-11-17T06:19:37.286Z,-0.10
2022-11-17T06:22:12.052Z,0.00
2022-11-17T06:24:41.374Z,0.00
2022-11-17T06:27:08.344Z,-0.10
2022-11-17T06:29:39.416Z,-0.20
2022-11-17T06:32:09.752Z,-0.10
2022-11-17T06:34:37.545Z,-0.20
2022-11-17T06:37:04.332Z,-0.20
2022-11-17T06:39:31.163Z,-0.20
2022-11-17T06:41:57.949Z,-0.20
2022-11-17T06:44:24.698Z,-0.30
2022-11-17T06:46:51.450Z,-0.30
2022-11-17T06:49:18.267Z,-0.30
2022-11-17T06:51:45.751Z,-0.30
2022-11-17T06:54:14.600Z,-0.20
2022-11-17T06:56:41.968Z,-0.20
2022-11-17T06:59:08.683Z,-0.10
2022-11-17T07:01:36.826Z,-0.10
2022-11-17T07:04:03.753Z,0.10
2022-11-17T07:06:30.556Z,0.10
2022-11-17T07:08:57.333Z,0.20
2022-11-17T07:11:24.076Z,0.20
2022-11-17T07:13:50.786Z,0.10
2022-11-17T07:16:23.468Z,0.10
2022-11-17T07:18:52.270Z,0.10
2022-11-17T07:21:19.211Z,0.00
2022-11-17T07:23:47.086Z,0.00
2022-11-17T07:26:14.348Z,-0.10
2022-11-17T07:28:41.173Z,-0.10
2022-11-17T07:31:09.174Z,-0.10
2022-11-17T07:33:36.619Z,-0.10
2022-11-17T07:36:05.676Z,-0.20
2022-11-17T07:38:34.780Z,-0.10
2022-11-17T07:41:02.550Z,0.10
2022-11-17T07:43:29.492Z,0.10
2022-11-17T07:45:56.657Z,0.10
2022-11-17T07:48:23.455Z,0.20
2022-11-17T07:50:50.539Z,0.00
2022-11-17T07:53:17.304Z,0.00
2022-11-17T07:55:44.096Z,0.00
2022-11-17T07:58:10.894Z,0.10
2022-11-17T08:00:37.841Z,0.20
2022-11-17T08:03:05.042Z,0.20
2022-11-17T08:05:41.552Z,0.20
2022-11-17T08:08:10.021Z,0.30
2022-11-17T08:10:37.034Z,0.30
2022-11-17T08:13:04.543Z,0.30
2022-11-17T08:15:31.569Z,0.30
2022-11-17T08:18:00.090Z,0.30
2022-11-17T08:20:29.218Z,0.30
2022-11-17T08:22:56.664Z,0.30
2022-11-17T08:25:26.000Z,0.20
2022-11-17T08:27:57.893Z,0.30
2022-11-17T08:30:26.120Z,0.30
2022-11-17T08:32:53.976Z,0.30
2022-11-17T08:35:23.269Z,0.10
2022-11-17T08:37:50.164Z,0.00
2022-11-17T08:40:18.231Z,0.20
2022-11-17T08:42:45.618Z,0.30
2022-11-17T08:45:13.364Z,0.20
2022-11-17T08:47:40.339Z,0.10
2022-11-17T08:50:07.582Z,0.10
2022-11-17T08:52:34.396Z,0.10
2022-11-17T08:55:02.134Z,0.20
2022-11-17T08:57:33.029Z,0.10
2022-11-17T08:59:59.894Z,0.10
2022-11-17T09:02:26.771Z,0.10
2022-11-17T09:04:53.634Z,0.00
2022-11-17T09:07:20.461Z,0.10
2022-11-17T09:09:48.501Z,0.10
2022-11-17T09:12:15.972Z,0.10
2022-11-17T09:14:42.976Z,0.00
2022-11-17T09:17:09.943Z,0.00
2022-11-17T09:19:36.715Z,-0.10
2022-11-17T09:22:03.620Z,0.00
2022-11-17T09:24:30.346Z,0.00
2022-11-17T09:26:57.626Z,0.00
2022-11-17T09:29:24.489Z,0.10
2022-11-17T09:31:51.318Z,0.10
2022-11-17T09:34:18.285Z,0.10
2022-11-17T09:36:45.110Z,0.20
2022-11-17T09:39:11.875Z,0.30
2022-11-17T09:41:46.785Z,0.10
2022-11-17T09:44:19.297Z,0.10
2022-11-17T09:47:04.362Z,0.20
2022-11-17T09:49:40.191Z,0.00
2022-11-17T09:52:35.023Z,0.10
2022-11-17T09:55:27.271Z,0.20
2022-11-17T09:58:31.327Z,0.20
2022-11-17T10:00:58.579Z,0.10
2022-11-17T10:03:30.881Z,0.10
2022-11-17T10:05:59.521Z,0.00
2022-11-17T10:08:38.124Z,0.10
2022-11-17T10:11:30.388Z,0.00
2022-11-17T10:13:58.310Z,0.10
2022-11-17T10:16:25.215Z,0.10
2022-11-17T10:18:51.988Z,0.20
2022-11-17T10:21:18.843Z,0.20
2022-11-17T10:23:56.544Z,0.20
2022-11-17T10:26:23.273Z,0.00
2022-11-17T10:29:08.798Z,0.00
2022-11-17T10:31:44.779Z,0.00
2022-11-17T10:34:29.822Z,-0.10
2022-11-17T10:37:05.395Z,-0.10
2022-11-17T10:39:33.899Z,0.00
2022-11-17T10:42:12.879Z,0.10
2022-11-17T10:44:42.951Z,0.10
2022-11-17T10:47:52.120Z,0.10
2022-11-17T10:50:25.068Z,0.10
2022-11-17T10:52:53.916Z,0.20
2022-11-17T10:55:33.915Z,0.10
2022-11-17T10:58:23.326Z,0.20
2022-11-17T11:00:58.895Z,0.20
2022-11-17T11:03:32.174Z,0.30
2022-11-17T11:06:05.410Z,0.20
2022-11-17T11:08:55.338Z,0.10
2022-11-17T11:11:41.195Z,0.10
2022-11-17T11:14:36.779Z,0.00
2022-11-17T11:17:12.234Z,0.10
2022-11-17T11:19:43.300Z,0.00
2022-11-17T11:22:20.946Z,0.00
2022-11-17T11:24:57.993Z,-0.10
2022-11-17T11:27:57.369Z,-0.10
2022-11-17T11:30:24.247Z,-0.10
2022-11-17T11:33:11.942Z,-0.20
2022-11-17T11:35:58.026Z,0.00
2022-11-17T11:42:43.181Z,0.10
2022-11-17T11:45:37.992Z,0.20
2022-11-17T11:48:21.848Z,0.00
2022-11-17T11:50:55.259Z,0.10
2022-11-17T11:53:28.763Z,0.10
2022-11-17T11:56:08.643Z,0.00
2022-11-17T11:58:40.834Z,0.00
2022-11-17T12:01:09.589Z,0.00
2022-11-17T12:03:56.873Z,0.00
2022-11-17T12:06:43.590Z,-0.10
2022-11-17T12:09:28.832Z,0.00
2022-11-17T12:12:03.154Z,0.00
2022-11-17T12:14:36.449Z,0.10
2022-11-17T12:17:18.621Z,0.10
2022-11-17T12:19:58.879Z,0.00
2022-11-17T12:22:32.263Z,0.00
2022-11-17T12:25:28.334Z,0.00
2022-11-17T12:27:55.105Z,0.00
2022-11-17T12:30:33.799Z,-0.10
2022-11-17T12:33:04.020Z,-0.10
2022-11-17T12:35:39.113Z,0.00
2022-11-17T12:38:17.714Z,-0.10
2022-11-17T12:40:46.838Z,-0.10
2022-11-17T12:43:16.422Z,-0.10
2022-11-17T12:45:58.639Z,0.00
2022-11-17T12:48:35.924Z,0.00
2022-11-17T12:51:11.901Z,-0.10
2022-11-17T12:53:50.547Z,0.00
2022-11-17T12:56:17.269Z,-0.10
2022-11-17T12:59:19.397Z,-0.10
2022-11-17T13:01:49.378Z,0.00
2022-11-17T13:04:21.485Z,-0.10
2022-11-17T13:07:16.845Z,-0.10
2022-11-17T13:09:43.637Z,0.00
2022-11-17T13:12:11.348Z,-0.10
2022-11-17T13:14:53.721Z,-0.10
2022-11-17T13:17:29.528Z,0.00
2022-11-17T13:20:29.911Z,0.00
2022-11-17T13:23:18.270Z,-0.10
2022-11-17T13:25:45.079Z,-0.20
2022-11-17T13:28:29.560Z,-0.20
2022-11-17T13:30:56.911Z,-0.10
2022-11-17T13:33:24.979Z,-0.10
2022-11-17T13:36:17.814Z,-0.10
2022-11-17T13:38:51.871Z,-0.20
2022-11-17T13:41:21.909Z,-0.30
2022-11-17T13:43:50.457Z,-0.30
2022-11-17T13:46:17.889Z,-0.30
2022-11-17T13:48:46.512Z,-0.30
2022-11-17T13:51:32.689Z,-0.30
2022-11-17T13:54:11.683Z,-0.40
2022-11-17T13:57:02.048Z,-0.30
2022-11-17T13:59:38.478Z,-0.30
2022-11-17T14:02:19.064Z,-0.40
2022-11-17T14:05:10.953Z,-0.40
2022-11-17T14:07:39.563Z,-0.30
2022-11-17T14:10:15.205Z,-0.30
2022-11-17T14:12:42.045Z,-0.40
2022-11-17T14:15:22.825Z,-0.40
2022-11-17T14:17:55.126Z,-0.50
2022-11-17T14:20:25.033Z,-0.40
2022-11-17T14:23:01.300Z,-0.40
2022-11-17T14:25:29.538Z,-0.30
2022-11-17T14:27:56.386Z,-0.40
2022-11-17T14:30:23.295Z,-0.40
2022-11-17T14:32:50.110Z,-0.40
2022-11-17T14:37:44.837Z,-0.40
2022-11-17T14:40:18.189Z,-0.50
2022-11-17T14:42:45.035Z,-0.50
2022-11-17T14:45:16.877Z,-0.50
2022-11-17T14:47:44.250Z,-0.50
2022-11-17T14:50:16.220Z,-0.50
2022-11-17T14:52:44.560Z,-0.50
2022-11-17T14:55:13.222Z,-0.50
2022-11-17T14:57:41.213Z,-0.50
2022-11-17T15:00:13.443Z,-0.50
2022-11-17T15:02:43.046Z,-0.50
2022-11-17T15:05:10.939Z,-0.40
2022-11-17T15:07:38.292Z,-0.40
2022-11-17T15:10:06.742Z,-0.40
2022-11-17T15:12:33.670Z,-0.40
2022-11-17T15:15:00.483Z,-0.40
2022-11-17T15:17:28.314Z,-0.30
2022-11-17T15:19:55.357Z,-0.30
2022-11-17T15:22:22.484Z,-0.30
2022-11-17T15:24:49.246Z,-0.30
2022-11-17T15:27:16.122Z,-0.30
2022-11-17T15:29:42.933Z,-0.40
2022-11-17T15:32:10.632Z,-0.20
2022-11-17T15:34:37.420Z,-0.20
2022-11-17T15:37:05.552Z,-0.20
2022-11-17T15:39:32.295Z,-0.20
2022-11-17T15:41:59.087Z,-0.30
2022-11-17T15:44:26.133Z,-0.30
2022-11-17T15:46:52.871Z,-0.30
2022-11-17T15:49:19.807Z,-0.30
2022-11-17T15:51:46.629Z,-0.20
2022-11-17T15:54:18.479Z,-0.10
2022-11-17T15:56:47.317Z,-0.10
2022-11-17T15:59:14.619Z,-0.20
2022-11-17T16:01:41.826Z,-0.10
2022-11-17T16:04:11.080Z,-0.20
2022-11-17T16:06:42.640Z,-0.30
2022-11-17T16:09:10.459Z,-0.30
2022-11-17T16:11:37.660Z,-0.40
2022-11-17T16:14:05.243Z,-0.40
2022-11-17T16:16:37.301Z,-0.50
2022-11-17T16:19:04.676Z,-0.50
2022-11-17T16:21:31.475Z,-0.40
2022-11-17T16:24:00.589Z,-0.40
2022-11-17T16:26:28.414Z,-0.40
2022-11-17T16:29:00.345Z,-0.40
2022-11-17T16:31:30.150Z,-0.40
2022-11-17T16:34:01.437Z,-0.50
2022-11-17T16:36:35.957Z,-0.60
2022-11-17T16:39:04.904Z,-0.60
2022-11-17T16:41:34.170Z,-0.40
2022-11-17T16:44:01.881Z,-0.40
2022-11-17T16:46:30.706Z,-0.40
2022-11-17T16:49:01.671Z,-0.50
2022-11-17T16:51:28.654Z,-0.50
2022-11-17T16:53:58.111Z,-0.50
2022-11-17T16:56:25.010Z,-0.40
2022-11-17T16:58:52.607Z,-0.50
2022-11-17T17:01:27.346Z,-0.60
2022-11-17T17:04:12.552Z,-0.60
2022-11-17T17:06:41.733Z,-0.70
2022-11-17T17:09:09.537Z,-0.80
2022-11-17T17:11:37.280Z,-0.70
2022-11-17T17:14:08.241Z,-0.70
2022-11-17T17:16:36.996Z,-0.60
2022-11-17T17:19:05.525Z,-0.60
2022-11-17T17:21:33.589Z,-0.60
2022-11-17T17:24:00.867Z,-0.60
2022-11-17T17:26:29.868Z,-0.70
2022-11-17T17:28:58.213Z,-0.60
2022-11-17T17:31:29.084Z,-0.70
2022-11-17T17:33:56.231Z,-0.60
2022-11-17T17:36:26.685Z,-0.60
2022-11-17T17:38:59.059Z,-0.70
2022-11-17T17:41:27.747Z,-0.80
2022-11-17T17:44:05.712Z,-0.80
2022-11-17T17:46:36.639Z,-0.80
2022-11-17T17:49:03.814Z,-0.80
2022-11-17T17:51:30.990Z,-0.80
2022-11-17T17:54:01.066Z,-0.60
2022-11-17T17:56:28.371Z,-0.70
2022-11-17T17:58:55.906Z,-0.70
2022-11-17T18:01:25.730Z,-0.80
2022-11-17T18:03:54.806Z,-0.80
2022-11-17T18:06:22.604Z,-0.90
2022-11-17T18:08:49.677Z,-0.90
2022-11-17T18:11:20.670Z,-0.90
2022-11-17T18:13:49.534Z,-0.90
2022-11-17T18:16:25.513Z,-0.90
2022-11-17T18:18:57.848Z,-0.80
2022-11-17T18:21:24.812Z,-0.80
2022-11-17T18:23:53.506Z,-0.70
2022-11-17T18:26:41.276Z,-0.80
2022-11-17T18:29:18.189Z,-1.00
2022-11-17T18:31:49.439Z,-1.00
2022-11-17T18:34:23.731Z,-1.00
2022-11-17T18:36:52.009Z,-1.00
2022-11-17T18:39:19.439Z,-1.10
2022-11-17T18:41:47.027Z,-1.00
2022-11-17T18:44:16.800Z,-1.10
2022-11-17T18:46:43.635Z,-1.10
2022-11-17T18:49:10.526Z,-1.00
2022-11-17T18:51:37.406Z,-1.00
2022-11-17T18:54:04.713Z,-1.00
2022-11-17T18:56:36.227Z,-1.10
2022-11-17T18:59:03.956Z,-1.10
2022-11-17T19:01:30.894Z,-1.10
2022-11-17T19:04:00.778Z,-0.90
2022-11-17T19:06:28.011Z,-0.90
2022-11-17T19:08:54.994Z,-1.00
2022-11-17T19:11:22.826Z,-1.00
2022-11-17T19:13:50.027Z,-1.00
2022-11-17T19:16:21.281Z,-1.00
2022-11-17T19:18:50.265Z,-1.00
2022-11-17T19:21:20.176Z,-1.00
2022-11-17T19:23:51.871Z,-0.90
2022-11-17T19:26:24.514Z,-1.00
2022-11-17T19:28:55.602Z,-1.10
2022-11-17T19:31:22.657Z,-1.00
2022-11-17T19:33:50.688Z,-1.10
2022-11-17T19:36:23.381Z,-1.10
2022-11-17T19:38:52.573Z,-1.10
2022-11-17T19:41:23.982Z,-1.00
2022-11-17T19:43:55.419Z,-1.00
2022-11-17T19:46:23.903Z,-1.20
2022-11-17T19:48:50.986Z,-1.20
2022-11-17T19:51:24.925Z,-1.10
2022-11-17T19:53:54.152Z,-1.10
2022-11-17T19:56:22.827Z,-1.10
2022-11-17T19:58:50.563Z,-1.10
2022-11-17T20:01:24.933Z,-1.00
2022-11-17T20:03:52.610Z,-1.00
2022-11-17T20:06:21.558Z,-1.10
2022-11-17T20:08:48.554Z,-1.10
2022-11-17T20:11:17.842Z,-1.10
2022-11-17T20:13:45.089Z,-1.10
2022-11-17T20:16:14.823Z,-1.20
2022-11-17T20:18:43.023Z,-1.20
2022-11-17T20:21:11.299Z,-1.20
2022-11-17T20:23:39.269Z,-1.40
2022-11-17T20:26:18.272Z,-1.40
2022-11-17T20:28:45.464Z,-1.30
2022-11-17T20:31:19.411Z,-1.20
2022-11-17T20:33:47.628Z,-1.30
2022-11-17T20:36:19.794Z,-1.40
2022-11-17T20:38:54.001Z,-1.20
2022-11-17T20:41:23.287Z,-1.20
2022-11-17T20:43:52.087Z,-1.30
2022-11-17T20:46:19.808Z,-1.20
2022-11-17T20:48:47.025Z,-1.30
2022-11-17T20:51:16.827Z,-1.30
2022-11-17T20:53:44.111Z,-1.20
2022-11-17T20:56:14.629Z,-1.20
2022-11-17T20:58:41.668Z,-1.30
2022-11-17T21:01:14.543Z,-1.20
2022-11-17T21:03:41.594Z,-1.30
2022-11-17T21:06:08.616Z,-1.30
2022-11-17T21:08:37.462Z,-1.30
2022-11-17T21:11:07.438Z,-1.40
2022-11-17T21:13:35.407Z,-1.30
2022-11-17T21:16:06.180Z,-1.20
2022-11-17T21:18:33.291Z,-1.30
2022-11-17T21:21:00.459Z,-1.20
2022-11-17T21:23:28.115Z,-1.20
2022-11-17T21:25:55.080Z,-1.10
2022-11-17T21:28:21.998Z,-1.20
2022-11-17T21:30:48.737Z,-1.20
2022-11-17T21:33:15.593Z,-1.20
2022-11-17T21:35:42.341Z,-1.30
2022-11-17T21:38:10.776Z,-1.30
2022-11-17T21:40:37.751Z,-1.10
2022-11-17T21:43:04.569Z,-1.20
2022-11-17T21:45:33.319Z,-1.30
2022-11-17T21:48:00.112Z,-1.40
2022-11-17T21:50:27.102Z,-1.40
2022-11-17T21:52:53.893Z,-1.60
2022-11-17T21:55:20.689Z,-1.50
2022-11-17T21:57:50.526Z,-1.60
2022-11-17T22:00:17.949Z,-1.50
2022-11-17T22:02:44.725Z,-1.40
2022-11-17T22:05:11.584Z,-1.40
2022-11-17T22:07:38.469Z,-1.30
2022-11-17T22:10:06.030Z,-1.30
2022-11-17T22:12:32.741Z,-1.30
2022-11-17T22:14:59.443Z,-1.40
2022-11-17T22:17:29.207Z,-1.40
2022-11-17T22:19:55.965Z,-1.50
2022-11-17T22:22:22.768Z,-1.50
2022-11-17T22:24:50.050Z,-1.40
2022-11-17T22:27:17.040Z,-1.50
2022-11-17T22:29:43.782Z,-1.50
2022-11-17T22:32:10.621Z,-1.50
2022-11-17T22:34:37.396Z,-1.50
2022-11-17T22:37:04.163Z,-1.60
2022-11-17T22:39:34.141Z,-1.60
2022-11-17T22:42:00.918Z,-1.60
2022-11-17T22:44:27.710Z,-1.70
2022-11-17T22:46:54.529Z,-1.70
2022-11-17T22:49:21.315Z,-1.90
2022-11-17T22:52:03.453Z,-1.80
2022-11-17T22:54:33.765Z,-1.70
2022-11-17T22:57:01.194Z,-1.60
2022-11-17T22:59:29.347Z,-1.50
2022-11-17T23:01:56.254Z,-1.40
2022-11-17T23:04:23.241Z,-1.50
2022-11-17T23:06:50.098Z,-1.60
2022-11-17T23:09:17.230Z,-1.60
2022-11-17T23:11:44.672Z,-1.50
2022-11-17T23:14:13.799Z,-1.60
2022-11-17T23:16:40.934Z,-1.60
2022-11-17T23:19:11.177Z,-1.60
2022-11-17T23:21:38.014Z,-1.60
2022-11-17T23:24:05.098Z,-1.70
2022-11-17T23:26:31.865Z,-1.70
2022-11-17T23:28:58.927Z,-1.70
2022-11-17T23:31:27.858Z,-1.70
2022-11-17T23:33:54.688Z,-1.60
2022-11-17T23:36:22.689Z,-1.70
2022-11-17T23:38:50.429Z,-1.70
2022-11-17T23:41:19.470Z,-1.70
2022-11-17T23:43:46.735Z,-1.60
2022-11-17T23:46:15.458Z,-1.70
2022-11-17T23:48:43.168Z,-1.60
2022-11-17T23:51:15.829Z,-1.70
2022-11-17T23:53:43.086Z,-1.80
2022-11-17T23:56:10.988Z,-1.70
2022-11-17T23:58:38.189Z,-1.80
